• Join FlightAware (Why Join?)
  • Login
  • US Flag 
Rudolph Flight #1: Arrived! 
04:02PM EST


 

Airport Tracker/Info


-or-


 

Live Flight TrackerFlight Track Log ✈ FSR411 ✈ 2013-May-16 ✈ KDET - KADH

Flight Track Log - Related Links

Times and Time Zones

All times are in EDT time to prevent confusion due to time zone crossing. See the FSR411 flight status page for this flight to view local times or setup timezone preferences in your user account.

Time Position Orientation Groundspeed Altitude Reporting Facility
EDT Latitude Longitude Course Direction KTS MPH feet Rate Location/Type
08:51AM 40.3732 -87.2772 239° Southwest  Level Estimated
08:52AM 40.3128 -87.3952 236° Southwest  Level Estimated
08:53AM 40.2522 -87.5130 236° Southwest  Level Estimated
08:54AM 40.1916 -87.6306 236° Southwest  Level Estimated
08:55AM 40.1308 -87.7480 236° Southwest  Level Estimated
08:56AM 40.0699 -87.8652 236° Southwest  Level Estimated
08:57AM 40.0088 -87.9822 236° Southwest  Level Estimated
08:58AM 39.9477 -88.0989 236° Southwest  Level Estimated
08:59AM 39.8864 -88.2155 236° Southwest  Level Estimated
09:00AM 39.8251 -88.3318 236° Southwest  Level Estimated
09:01AM 39.7635 -88.4480 235° Southwest  Level Estimated
09:02AM 39.7019 -88.5639 235° Southwest  Level Estimated
09:03AM 39.6402 -88.6796 235° Southwest  Level Estimated
09:04AM 39.5784 -88.7952 235° Southwest  Level Estimated
09:05AM 39.5164 -88.9105 235° Southwest  Level Estimated
09:06AM 39.4543 -89.0256 235° Southwest  Level Estimated
09:07AM 39.3922 -89.1405 235° Southwest  Level Estimated
09:08AM 39.3299 -89.2552 235° Southwest  Level Estimated
09:09AM 39.2674 -89.3697 235° Southwest  Level Estimated
09:10AM 39.2049 -89.4840 235° Southwest  Level Estimated
09:11AM 39.1423 -89.5980 235° Southwest  Level Estimated
09:12AM 39.0796 -89.7119 235° Southwest  Level Estimated
09:13AM 39.0167 -89.8256 235° Southwest  Level Estimated
09:14AM 38.9538 -89.9391 235° Southwest  Level Estimated
09:15AM 38.8907 -90.0524 234° Southwest  Level Estimated
09:16AM 38.8275 -90.1654 234° Southwest  Level Estimated
09:17AM 38.7642 -90.2783 234° Southwest  Level Estimated
09:18AM 38.7008 -90.3910 234° Southwest  Level Estimated
09:19AM 38.6373 -90.5034 234° Southwest  Level Estimated
09:20AM 38.5737 -90.6157 234° Southwest  Level Estimated
09:21AM 38.5100 -90.7278 234° Southwest  Level Estimated
09:22AM 38.4467 -90.8387 234° Southwest  Level Estimated
09:23AM 38.3833 -90.9494 234° Southwest  Level Estimated
09:23AM 38.3164 -90.6356 234° Southwest 409 471 40,000  Level Kansas City Center
09:24AM 38.3198 -91.0599 234° Southwest  Level Estimated
09:24AM 38.2525 -90.7547 236° Southwest 408 470 40,000  Level Kansas City Center
09:25AM 38.2572 -91.1686 234° Southwest  Level Estimated
09:25AM 38.1900 -90.8739 236° Southwest 406 467 40,000  Level Kansas City Center
09:26AM 38.1945 -91.2771 234° Southwest  Level Estimated
09:26AM 38.1278 -90.9894 236° Southwest 401 461 40,000  Level Kansas City Center
09:27AM 38.1317 -91.3854 234° Southwest  Level Estimated
09:27AM 38.0611 -91.1108 235° Southwest 399 459 40,000  Level Kansas City Center
09:28AM 38.0687 -91.4934 234° Southwest  Level Estimated
09:28AM 37.9992 -91.2261 236° Southwest 396 456 40,000  Level Kansas City Center
09:29AM 37.9369 -91.3408 236° Southwest 395 455 40,000  Level Kansas City Center
09:30AM 37.8628 -91.4800 236° Southwest 395 455 40,000  Level Kansas City Center
09:31AM 37.8008 -91.5944 236° Southwest 393 452 40,000  Level Kansas City Center
09:32AM 37.7372 -91.7081 235° Southwest 393 452 40,000  Level Kansas City Center
09:33AM 37.6750 -91.8233 236° Southwest 394 453 40,000  Level Kansas City Center
09:34AM 37.6114 -91.9375 235° Southwest 395 455 40,000  Level Kansas City Center
09:35AM 37.5486 -92.0528 236° Southwest 395 455 40,000  Level Kansas City Center
09:36AM 37.4856 -92.1664 235° Southwest 393 452 40,000  Level Kansas City Center
09:37AM 37.4222 -92.2794 235° Southwest 391 450 40,000  Level Kansas City Center
09:38AM 37.3592 -92.3922 235° Southwest 391 450 40,000  Level Kansas City Center
09:39AM 37.2964 -92.5028 235° Southwest 388 447 40,000  Level Kansas City Center
09:40AM 37.2200 -92.6356 234° Southwest 389 448 40,000  Level Kansas City Center
09:41AM 37.1578 -92.7464 235° Southwest 387 445 40,000  Level Kansas City Center
09:42AM 37.0944 -92.8572 234° Southwest 389 448 40,000  Level Kansas City Center
09:43AM 37.0289 -92.9706 234° Southwest 396 456 40,000  Level Kansas City Center
09:44AM 36.9639 -93.0856 235° Southwest 400 460 40,000  Level Kansas City Center
09:45AM 36.8981 -93.1986 234° Southwest 402 463 40,000  Level Kansas City Center
09:46AM 36.8733 -93.2511 240° Southwest 401 461 40,000  Level Memphis Center
09:47AM 36.8061 -93.3653 234° Southwest 401 461 40,000  Level Memphis Center
09:47AM 36.7619 -93.4378 233° Southwest 408 470 40,000  Level Kansas City Center
09:48AM 36.6939 -93.5542 234° Southwest 414 476 40,000  Level Kansas City Center
09:49AM 36.6267 -93.6706 234° Southwest 416 479 40,000  Level Kansas City Center
09:51AM 36.5544 -93.7969 235° Southwest 419 482 40,000  Level Kansas City Center
09:52AM 36.4853 -93.9153 234° Southwest 420 483 40,000  Level Kansas City Center
09:53AM 36.4011 -94.0581 234° Southwest 424 488 40,000  Level Kansas City Center
09:54AM 36.3303 -94.1786 234° Southwest 427 491 40,000  Level Kansas City Center
09:55AM 36.2547 -94.3050 233° Southwest 427 491 40,000  Level Memphis Center
09:56AM 36.1819 -94.4250 233° Southwest 427 491 40,000  Level Memphis Center
09:57AM 36.1133 -94.5447 235° Southwest 433 498 40,000  Level Memphis Center
09:58AM 36.0406 -94.6642 233° Southwest 438 504 40,000  Level Memphis Center
09:59AM 35.9717 -94.7839 235° Southwest 438 504 40,000  Level Memphis Center
10:00AM 35.8964 -94.9053 233° Southwest 438 504 40,000 -1,320 Level Memphis Center
10:02AM 35.7103 -95.2178 234° Southwest 429 494 35,400 -2,040 Descending Fort Worth Center
10:03AM 35.6372 -95.3347 232° Southwest 435 501 32,600 -3,060 Descending Fort Worth Center
10:04AM 35.5642 -95.4564 234° Southwest 440 506 29,300 -3,300 Descending Fort Worth Center
10:05AM 35.4928 -95.5753 234° Southwest 445 512 26,000 -3,180 Descending Fort Worth Center
10:06AM 35.4194 -95.6942 233° Southwest 445 512 23,000 -2,940 Descending Fort Worth Center
10:07AM 35.3333 -95.7900 222° Southwest 435 501 20,200 -2,520 Descending Fort Worth Center
10:08AM 35.2675 -95.8625 222° Southwest 419 482 18,000 -2,520 Descending Fort Worth Center
10:09AM 35.1808 -95.9531 221° Southwest 396 456 15,200 -2,460 Descending Fort Worth Center
10:10AM 35.1089 -96.0381 224° Southwest 374 430 13,100 -1,980 Descending Fort Worth Center
10:11AM 35.0450 -96.1125 224° Southwest 348 400 11,300 -1,800 Descending Fort Worth Center
10:12AM 34.9917 -96.1919 231° Southwest 320 368 9,500 -1,560 Descending Fort Worth Center
10:13AM 34.9861 -96.2858 266° West 281 323 8,200 -1,500 Descending Fort Worth Center
10:14AM 34.9889 -96.3769 272° West 271 312 6,600 -1,620 Descending Fort Worth Center
10:15AM 34.9897 -96.4683 271° West 271 312 5,000 -1,680 Descending Fort Worth Center
10:16AM 34.9903 -96.5569 270° West 271 312 3,300 -1,020 Descending Fort Worth Center
10:17AM 34.9889 -96.6306 269° West 253 291 3,000 -300 Descending Fort Worth Center
10:18AM 34.9619 -96.6764 234° Southwest 181 208 2,800 -240 Descending Fort Worth Center
10:19AM 34.9161 -96.6767 180° South 140 161 2,600 -300 Descending Fort Worth Center
10:20AM 34.8786 -96.6769 180° South 140 161 2,300 -480 Descending Fort Worth Center
10:21AM 34.8408 -96.6772 180° South 140 161 1,700 -480 Descending Fort Worth Center
10:22AM 34.8097 -96.6775 180° South 140 161 1,400 -180 Descending Fort Worth Center
10:23AM 34.8056 -96.6700 124° Southeast 140 161 1,400 1,260 Level Fort Worth Center
10:24AM 34.8056 -96.6700 180° South 140 161 4,000 2,580 Climbing Fort Worth Center